createdAt,value
2023-05-19T00:02:27.251Z,101140.56
2023-05-19T00:05:31.234Z,101129.13
2023-05-19T00:08:35.161Z,101136.00
2023-05-19T00:11:40.830Z,101135.06
2023-05-19T00:14:44.180Z,101137.75
2023-05-19T00:17:47.800Z,101144.06
2023-05-19T00:20:52.516Z,101139.63
2023-05-19T00:23:56.448Z,101129.69
2023-05-19T00:26:59.814Z,101128.84
2023-05-19T00:30:03.157Z,101126.38
2023-05-19T00:33:06.486Z,101124.69
2023-05-19T00:36:10.359Z,101133.00
2023-05-19T00:39:13.657Z,101131.44
2023-05-19T00:42:17.941Z,101130.38
2023-05-19T00:45:21.149Z,101130.38
2023-05-19T00:48:26.136Z,101128.47
2023-05-19T00:51:29.939Z,101120.41
2023-05-19T00:54:36.582Z,101121.37
2023-05-19T00:57:39.991Z,101115.09
2023-05-19T01:00:44.496Z,101115.25
2023-05-19T01:03:49.143Z,101116.03
2023-05-19T01:06:55.931Z,101110.72
2023-05-19T01:10:00.171Z,101110.09
2023-05-19T01:13:05.756Z,101110.00
2023-05-19T01:16:21.529Z,101121.63
2023-05-19T01:19:37.139Z,101115.16
2023-05-19T01:23:01.995Z,101120.41
2023-05-19T01:26:30.386Z,101112.19
2023-05-19T01:29:45.770Z,101113.84
2023-05-19T01:32:51.653Z,101105.78
2023-05-19T01:35:56.663Z,101105.03
2023-05-19T01:39:02.374Z,101098.37
2023-05-19T01:42:06.871Z,101112.69
2023-05-19T01:45:11.634Z,101112.56
2023-05-19T01:48:15.545Z,101111.56
2023-05-19T01:51:19.189Z,101110.59
2023-05-19T01:54:22.770Z,101099.00
2023-05-19T01:57:50.949Z,101108.69
2023-05-19T02:01:15.876Z,101106.75
2023-05-19T02:04:32.570Z,101103.38
2023-05-19T02:07:45.259Z,101099.84
2023-05-19T02:10:55.553Z,101103.44
2023-05-19T02:14:03.092Z,101099.66
2023-05-19T02:17:06.755Z,101106.06
2023-05-19T02:20:10.477Z,101101.53
2023-05-19T02:23:13.839Z,101103.44
2023-05-19T02:26:17.025Z,101086.94
2023-05-19T02:29:21.476Z,101101.00
2023-05-19T02:32:26.539Z,101103.97
2023-05-19T02:35:29.927Z,101098.53
2023-05-19T02:38:33.041Z,101103.97
2023-05-19T02:41:36.928Z,101104.56
2023-05-19T02:44:40.352Z,101105.72
2023-05-19T02:47:43.747Z,101110.00
2023-05-19T02:50:47.065Z,101114.28
2023-05-19T02:53:51.042Z,101109.84
2023-05-19T02:56:54.227Z,101110.78
2023-05-19T02:59:57.895Z,101104.41
2023-05-19T03:03:03.025Z,101101.25
2023-05-19T03:06:08.843Z,101107.47
2023-05-19T03:09:11.977Z,101120.22
2023-05-19T03:12:15.453Z,101113.06
2023-05-19T03:15:19.410Z,101101.69
2023-05-19T03:18:24.958Z,101113.44
2023-05-19T03:21:30.469Z,101110.12
2023-05-19T03:24:35.066Z,101111.31
2023-05-19T03:27:38.542Z,101123.22
2023-05-19T03:30:42.459Z,101123.56
2023-05-19T03:33:45.929Z,101124.87
2023-05-19T03:36:50.489Z,101124.94
2023-05-19T03:39:53.697Z,101119.50
2023-05-19T03:42:57.347Z,101116.03
2023-05-19T03:46:01.008Z,101112.53
2023-05-19T03:49:06.591Z,101109.66
2023-05-19T03:52:11.103Z,101115.00
2023-05-19T03:55:20.338Z,101112.00
2023-05-19T03:58:24.233Z,101114.47
2023-05-19T04:01:29.806Z,101115.00
2023-05-19T04:04:34.184Z,101113.88
2023-05-19T04:07:37.345Z,101113.31
2023-05-19T04:10:40.792Z,101114.81
2023-05-19T04:13:45.195Z,101114.47
2023-05-19T04:16:49.067Z,101123.22
2023-05-19T04:19:55.765Z,101131.16
2023-05-19T04:22:59.224Z,101128.53
2023-05-19T04:26:06.332Z,101132.84
2023-05-19T04:29:10.898Z,101128.75
2023-05-19T04:32:17.985Z,101131.63
2023-05-19T04:35:22.712Z,101119.97
2023-05-19T04:38:26.294Z,101136.53
2023-05-19T04:41:29.682Z,101138.59
2023-05-19T04:44:33.824Z,101139.13
2023-05-19T04:47:38.277Z,101136.81
2023-05-19T04:50:42.460Z,101140.81
2023-05-19T04:53:47.471Z,101148.81
2023-05-19T04:56:50.818Z,101150.34
2023-05-19T05:00:00.416Z,101152.53
2023-05-19T05:03:07.982Z,101153.16
2023-05-19T05:06:12.222Z,101151.50
2023-05-19T05:09:17.007Z,101152.94
2023-05-19T05:12:22.100Z,101147.47
2023-05-19T05:15:28.977Z,101158.41
2023-05-19T05:18:34.867Z,101144.28
2023-05-19T05:21:38.684Z,101153.31
2023-05-19T05:24:45.408Z,101154.22
2023-05-19T05:27:49.672Z,101157.56
2023-05-19T05:30:56.606Z,101160.19
2023-05-19T05:34:00.461Z,101155.41
2023-05-19T05:37:04.392Z,101166.66
2023-05-19T05:40:08.615Z,101168.28
2023-05-19T05:43:13.071Z,101173.03
2023-05-19T05:46:17.229Z,101168.94
2023-05-19T05:49:21.190Z,101172.09
2023-05-19T05:52:29.972Z,101173.94
2023-05-19T05:55:36.266Z,101168.31
2023-05-19T05:58:41.474Z,101174.88
2023-05-19T06:01:45.198Z,101168.87
2023-05-19T06:04:48.654Z,101172.03
2023-05-19T06:07:52.072Z,101163.09
2023-05-19T06:10:55.744Z,101166.03
2023-05-19T06:13:59.115Z,101174.88
2023-05-19T06:17:05.499Z,101164.62
2023-05-19T06:20:10.291Z,101176.28
2023-05-19T06:23:14.027Z,101177.59
2023-05-19T06:26:17.338Z,101168.31
2023-05-19T06:29:21.129Z,101181.41
2023-05-19T06:32:24.597Z,101177.16
2023-05-19T06:35:28.406Z,101181.34
2023-05-19T06:38:31.731Z,101180.72
2023-05-19T06:41:35.453Z,101181.03
2023-05-19T06:44:39.475Z,101184.81
2023-05-19T06:47:45.742Z,101185.22
2023-05-19T06:50:51.077Z,101188.47
2023-05-19T06:53:55.999Z,101190.72
2023-05-19T06:56:59.606Z,101195.34
2023-05-19T07:00:13.431Z,101195.34
2023-05-19T07:03:18.846Z,101202.31
2023-05-19T07:06:22.539Z,101198.12
2023-05-19T07:09:29.941Z,101204.06
2023-05-19T07:12:33.417Z,101202.06
2023-05-19T07:15:38.403Z,101199.97
2023-05-19T07:18:45.207Z,101195.63
2023-05-19T07:21:48.636Z,101199.22
2023-05-19T07:24:52.901Z,101190.69
2023-05-19T07:27:57.788Z,101183.19
2023-05-19T07:31:01.620Z,101187.28
2023-05-19T07:34:05.182Z,101184.81
2023-05-19T07:37:08.633Z,101183.91
2023-05-19T07:40:12.147Z,101191.69
2023-05-19T07:43:15.743Z,101177.66
2023-05-19T07:46:19.004Z,101178.63
2023-05-19T07:49:22.602Z,101175.59
2023-05-19T07:52:27.737Z,101182.97
2023-05-19T07:55:31.213Z,101185.41
2023-05-19T07:58:34.382Z,101180.41
2023-05-19T08:01:37.736Z,101179.28
2023-05-19T08:04:41.187Z,101179.81
2023-05-19T08:07:44.239Z,101177.56
2023-05-19T08:10:47.854Z,101170.00
2023-05-19T08:13:51.911Z,101158.38
2023-05-19T08:16:56.760Z,101164.44
2023-05-19T08:20:00.535Z,101162.34
2023-05-19T08:23:04.710Z,101165.69
2023-05-19T08:26:07.868Z,101154.06
2023-05-19T08:29:11.254Z,101157.06
2023-05-19T08:32:14.341Z,101158.78
2023-05-19T08:35:17.844Z,101146.78
2023-05-19T08:38:21.157Z,101150.16
2023-05-19T08:41:24.600Z,101143.19
2023-05-19T08:44:27.921Z,101150.75
2023-05-19T08:47:32.875Z,101147.28
2023-05-19T08:50:40.403Z,101154.22
2023-05-19T08:53:50.874Z,101164.09
2023-05-19T08:56:56.089Z,101154.63
2023-05-19T09:00:00.331Z,101153.91
2023-05-19T09:03:17.446Z,101160.22
2023-05-19T09:06:23.469Z,101157.56
2023-05-19T09:09:26.793Z,101156.00
2023-05-19T09:12:30.509Z,101154.59
2023-05-19T09:15:37.067Z,101154.09
2023-05-19T09:18:43.266Z,101151.47
2023-05-19T09:21:46.596Z,101151.66
2023-05-19T09:24:50.062Z,101151.31
2023-05-19T09:27:55.457Z,101151.09
2023-05-19T09:31:07.978Z,101149.13
2023-05-19T09:34:14.388Z,101151.59
2023-05-19T09:37:23.290Z,101142.03
2023-05-19T09:40:28.963Z,101136.81
2023-05-19T09:43:34.622Z,101132.50
2023-05-19T09:46:38.041Z,101136.69
2023-05-19T09:49:47.572Z,101136.25
2023-05-19T09:52:53.167Z,101135.75
2023-05-19T09:55:58.169Z,101120.75
2023-05-19T09:59:04.831Z,101120.84
2023-05-19T10:02:15.960Z,101126.47
2023-05-19T10:05:20.948Z,101131.41
2023-05-19T10:08:26.708Z,101134.38
2023-05-19T10:11:31.115Z,101131.03
2023-05-19T10:14:34.440Z,101121.37
2023-05-19T10:17:42.700Z,101101.75
2023-05-19T10:20:47.840Z,101100.22
2023-05-19T10:23:51.224Z,101103.94
2023-05-19T10:27:03.972Z,101091.94
2023-05-19T10:30:22.130Z,101105.00
2023-05-19T10:33:44.030Z,101106.88
2023-05-19T10:36:55.950Z,101096.19
2023-05-19T10:39:59.975Z,101092.03
2023-05-19T10:43:18.377Z,101084.81
2023-05-19T10:46:27.096Z,101095.00
2023-05-19T10:49:36.052Z,101088.81
2023-05-19T10:52:40.792Z,101084.00
2023-05-19T10:55:59.262Z,101095.34
2023-05-19T10:59:03.897Z,101084.00
2023-05-19T11:02:08.924Z,101085.75
2023-05-19T11:05:14.806Z,101063.44
2023-05-19T11:08:33.727Z,101085.09
2023-05-19T11:12:04.108Z,101063.78
2023-05-19T11:15:10.617Z,101058.69
2023-05-19T11:18:17.783Z,101057.44
2023-05-19T11:21:21.149Z,101068.38
2023-05-19T11:24:44.480Z,101066.16
2023-05-19T11:27:47.898Z,101055.06
2023-05-19T11:30:54.751Z,101053.22
2023-05-19T11:33:58.713Z,101049.34
2023-05-19T11:37:01.877Z,101059.25
2023-05-19T11:40:09.759Z,101044.72
2023-05-19T11:43:12.840Z,101048.09
2023-05-19T11:46:17.742Z,101053.03
2023-05-19T11:49:20.939Z,101044.94
2023-05-19T11:52:27.646Z,101035.94
2023-05-19T11:55:30.883Z,101035.88
2023-05-19T11:58:34.459Z,101043.50
2023-05-19T12:01:37.633Z,101039.53
2023-05-19T12:04:41.178Z,101042.00
2023-05-19T12:07:44.532Z,101044.59
2023-05-19T12:10:52.610Z,101024.13
2023-05-19T12:13:59.099Z,101048.53
2023-05-19T12:17:14.260Z,101029.38
2023-05-19T12:20:19.968Z,101036.34
2023-05-19T12:23:25.262Z,101030.66
2023-05-19T12:26:28.406Z,101028.25
2023-05-19T12:29:33.146Z,101026.78
2023-05-19T12:32:36.607Z,101023.91
2023-05-19T12:35:40.028Z,101022.22
2023-05-19T12:38:43.859Z,101013.63
2023-05-19T12:41:47.425Z,101013.94
2023-05-19T12:44:52.712Z,100998.91
2023-05-19T12:47:56.497Z,101000.06
2023-05-19T12:51:01.654Z,101002.09
2023-05-19T12:54:05.152Z,100996.87
2023-05-19T12:57:11.300Z,100997.34
2023-05-19T13:00:19.083Z,101000.06
2023-05-19T13:03:22.472Z,100997.62
2023-05-19T13:06:26.204Z,100990.28
2023-05-19T13:09:29.337Z,100993.34
2023-05-19T13:12:32.846Z,100981.06
2023-05-19T13:15:40.600Z,100974.62
2023-05-19T13:18:44.174Z,100984.97
2023-05-19T13:21:51.285Z,100988.84
2023-05-19T13:24:54.619Z,100977.44
2023-05-19T13:27:59.554Z,100974.12
2023-05-19T13:31:02.992Z,100963.63
2023-05-19T13:34:06.320Z,100963.75
2023-05-19T13:37:10.300Z,100958.28
2023-05-19T13:40:15.055Z,100948.97
2023-05-19T13:43:18.543Z,100944.12
2023-05-19T13:46:32.775Z,100941.28
2023-05-19T13:49:46.579Z,100940.62
2023-05-19T13:52:49.781Z,100937.19
2023-05-19T13:55:55.285Z,100945.72
2023-05-19T13:58:58.634Z,100941.47
2023-05-19T14:02:06.655Z,100931.91
2023-05-19T14:05:11.078Z,100938.34
2023-05-19T14:08:14.468Z,100933.81
2023-05-19T14:11:22.772Z,100932.81
2023-05-19T14:14:26.136Z,100930.94
2023-05-19T14:17:29.612Z,100935.28
2023-05-19T14:20:33.254Z,100939.22
2023-05-19T14:23:36.873Z,100940.47
2023-05-19T14:26:40.122Z,100937.88
2023-05-19T14:29:43.684Z,100934.19
2023-05-19T14:32:46.839Z,100930.69
2023-05-19T14:35:50.685Z,100933.62
2023-05-19T14:38:53.765Z,100932.91
2023-05-19T14:41:59.703Z,100933.41
2023-05-19T14:45:02.816Z,100932.75
2023-05-19T14:48:06.607Z,100933.25
2023-05-19T14:51:09.937Z,100922.50
2023-05-19T14:54:13.373Z,100926.00
2023-05-19T14:57:16.645Z,100930.19
2023-05-19T15:00:20.181Z,100924.53
2023-05-19T15:03:23.544Z,100923.47
2023-05-19T15:06:27.063Z,100915.69
2023-05-19T15:09:30.090Z,100912.06
2023-05-19T15:12:33.798Z,100919.63
2023-05-19T15:15:36.964Z,100914.25
2023-05-19T15:18:40.582Z,100908.37
2023-05-19T15:21:45.724Z,100906.25
2023-05-19T15:24:49.143Z,100902.13
2023-05-19T15:27:52.282Z,100903.19
2023-05-19T15:30:55.916Z,100906.25
2023-05-19T15:33:59.112Z,100905.91
2023-05-19T15:37:02.565Z,100905.38
2023-05-19T15:40:06.612Z,100902.22
2023-05-19T15:43:10.031Z,100899.25
2023-05-19T15:46:13.474Z,100892.72
2023-05-19T15:49:18.071Z,100890.31
2023-05-19T15:52:21.457Z,100894.44
2023-05-19T15:55:24.860Z,100896.28
2023-05-19T15:58:28.046Z,100883.12
2023-05-19T16:01:32.625Z,100891.59
2023-05-19T16:04:36.188Z,100890.72
2023-05-19T16:07:39.375Z,100884.19
2023-05-19T16:10:42.746Z,100891.31
2023-05-19T16:13:46.530Z,100889.16
2023-05-19T16:16:49.947Z,100890.59
2023-05-19T16:19:53.182Z,100896.62
2023-05-19T16:22:56.646Z,100895.03
2023-05-19T16:25:59.647Z,100893.22
2023-05-19T16:29:03.197Z,100895.53
2023-05-19T16:32:06.805Z,100905.38
2023-05-19T16:35:11.056Z,100900.84
2023-05-19T16:38:14.213Z,100896.28
2023-05-19T16:41:17.649Z,100902.06
2023-05-19T16:44:21.009Z,100911.97
2023-05-19T16:47:25.568Z,100908.28
2023-05-19T16:50:28.683Z,100903.81
2023-05-19T16:53:33.258Z,100898.13
2023-05-19T16:56:36.452Z,100904.00
2023-05-19T16:59:39.996Z,100912.47
2023-05-19T17:02:43.261Z,100905.75
2023-05-19T17:05:46.837Z,100904.66
2023-05-19T17:08:50.078Z,100906.06
2023-05-19T17:11:54.179Z,100911.75
2023-05-19T17:14:57.619Z,100908.75
2023-05-19T17:18:01.091Z,100901.56
2023-05-19T17:21:05.571Z,100899.56
2023-05-19T17:24:09.193Z,100915.50
2023-05-19T17:27:12.308Z,100916.62
2023-05-19T17:30:16.635Z,100919.38
2023-05-19T17:33:19.891Z,100914.31
2023-05-19T17:36:23.348Z,100921.22
2023-05-19T17:39:26.505Z,100925.63
2023-05-19T17:42:31.773Z,100925.66
2023-05-19T17:45:35.225Z,100924.44
2023-05-19T17:48:40.034Z,100927.28
2023-05-19T17:51:43.563Z,100931.66
2023-05-19T17:54:47.180Z,100937.75
2023-05-19T17:57:50.801Z,100935.91
2023-05-19T18:00:55.292Z,100931.97
2023-05-19T18:03:59.229Z,100930.19
2023-05-19T18:07:03.775Z,100941.91
2023-05-19T18:10:08.460Z,100940.09
2023-05-19T18:13:14.419Z,100948.56
2023-05-19T18:16:17.809Z,100949.06
2023-05-19T18:19:20.962Z,100948.59
2023-05-19T18:22:24.491Z,100944.41
2023-05-19T18:25:27.781Z,100949.81
2023-05-19T18:28:31.171Z,100957.41
2023-05-19T18:31:35.712Z,100952.22
2023-05-19T18:34:39.228Z,100959.41
2023-05-19T18:37:42.597Z,100965.09
2023-05-19T18:40:46.178Z,100962.97
2023-05-19T18:43:49.357Z,100960.44
2023-05-19T18:46:53.728Z,100971.09
2023-05-19T18:49:56.871Z,100964.09
2023-05-19T18:53:00.661Z,100973.94
2023-05-19T18:56:04.263Z,100977.34
2023-05-19T18:59:09.977Z,100979.03
2023-05-19T19:02:13.381Z,100983.00
2023-05-19T19:05:16.798Z,100981.72
2023-05-19T19:08:20.087Z,100984.94
2023-05-19T19:11:23.772Z,100991.16
2023-05-19T19:14:26.985Z,100978.09
2023-05-19T19:17:30.883Z,100975.06
2023-05-19T19:20:34.968Z,100988.84
2023-05-19T19:23:39.819Z,100985.81
2023-05-19T19:26:42.927Z,100984.97
2023-05-19T19:29:51.292Z,100983.88
2023-05-19T19:32:56.726Z,100989.56
2023-05-19T19:36:00.899Z,100987.34
2023-05-19T19:39:04.149Z,100996.06
2023-05-19T19:42:07.591Z,101003.88
2023-05-19T19:45:13.100Z,100990.94
2023-05-19T19:48:18.212Z,101005.28
2023-05-19T19:51:21.424Z,100996.47
2023-05-19T19:54:25.011Z,101006.06
2023-05-19T19:57:29.371Z,101015.00
2023-05-19T20:00:33.277Z,101017.19
2023-05-19T20:03:37.435Z,101023.63
2023-05-19T20:06:41.085Z,101020.03
2023-05-19T20:09:44.607Z,101025.78
2023-05-19T20:12:48.022Z,101033.97
2023-05-19T20:15:51.654Z,101027.84
2023-05-19T20:18:54.908Z,101032.31
2023-05-19T20:21:58.379Z,101029.13
2023-05-19T20:25:02.016Z,101036.13
2023-05-19T20:28:05.385Z,101018.69
2023-05-19T20:31:09.457Z,101029.59
2023-05-19T20:34:12.956Z,101026.34
2023-05-19T20:37:17.446Z,101028.53
2023-05-19T20:40:20.878Z,101015.66
2023-05-19T20:43:24.178Z,101013.28
2023-05-19T20:46:27.891Z,101022.66
2023-05-19T20:49:31.347Z,101008.94
2023-05-19T20:52:34.860Z,101015.47
2023-05-19T20:55:39.174Z,101013.19
2023-05-19T20:58:43.126Z,101006.50
2023-05-19T21:01:46.512Z,101021.00
2023-05-19T21:04:50.939Z,101008.47
2023-05-19T21:07:54.157Z,101022.44
2023-05-19T21:10:57.539Z,101008.38
2023-05-19T21:14:04.372Z,101019.19
2023-05-19T21:17:08.371Z,101017.53
2023-05-19T21:20:12.712Z,101018.41
2023-05-19T21:23:16.181Z,101021.13
2023-05-19T21:26:19.470Z,101012.53
2023-05-19T21:29:22.887Z,100983.41
2023-05-19T21:32:26.288Z,101008.72
2023-05-19T21:35:29.725Z,101019.06
2023-05-19T21:38:32.844Z,101004.44
2023-05-19T21:41:36.390Z,101009.78
2023-05-19T21:44:39.555Z,101013.25
2023-05-19T21:47:43.147Z,101024.00
2023-05-19T21:50:46.257Z,101024.97
2023-05-19T21:53:49.784Z,101029.41
2023-05-19T21:56:53.019Z,101032.66
2023-05-19T21:59:56.632Z,101023.06
2023-05-19T22:03:00.422Z,101009.84
2023-05-19T22:06:06.518Z,101003.19
2023-05-19T22:09:11.100Z,101022.03
2023-05-19T22:12:14.462Z,101028.75
2023-05-19T22:15:18.575Z,101008.81
2023-05-19T22:18:22.124Z,101025.69
2023-05-19T22:21:25.293Z,101022.03
2023-05-19T22:24:28.778Z,101017.97
2023-05-19T22:27:32.177Z,101006.13
2023-05-19T22:30:38.498Z,100995.72
2023-05-19T22:33:43.002Z,100996.78
2023-05-19T22:36:46.416Z,100990.38
2023-05-19T22:39:49.610Z,100985.91
2023-05-19T22:42:53.055Z,100990.97
2023-05-19T22:45:56.409Z,100990.00
2023-05-19T22:49:00.159Z,100964.75
2023-05-19T22:52:03.385Z,100988.16
2023-05-19T22:55:07.485Z,100984.62
2023-05-19T22:58:10.795Z,100977.75
2023-05-19T23:01:14.236Z,100974.06
2023-05-19T23:04:17.729Z,100974.06
2023-05-19T23:07:21.466Z,100962.59
2023-05-19T23:10:24.669Z,100967.38
2023-05-19T23:13:28.233Z,100962.25
2023-05-19T23:16:31.508Z,100968.75
2023-05-19T23:19:36.573Z,100963.16
2023-05-19T23:22:39.771Z,100977.72
2023-05-19T23:25:43.243Z,100961.12
2023-05-19T23:28:46.375Z,100960.47
2023-05-19T23:31:49.796Z,100937.50
2023-05-19T23:34:52.920Z,100948.84
2023-05-19T23:37:56.580Z,100966.47
2023-05-19T23:40:59.761Z,100958.66
2023-05-19T23:44:04.230Z,100970.75
2023-05-19T23:47:07.544Z,100963.97
2023-05-19T23:50:11.545Z,100957.09
2023-05-19T23:53:14.766Z,100969.59
2023-05-19T23:56:18.374Z,100937.72
2023-05-19T23:59:21.493Z,100949.94
